sensor_id;sensor_type;location;lat;lon;timestamp;P1;durP1;ratioP1;P2;durP2;ratioP2
52618;SDS011;38513;53.234;6.568;2023-05-23T00:00:54;50.60;;;24.58;;
52618;SDS011;38513;53.234;6.568;2023-05-23T00:03:22;45.90;;;23.65;;
52618;SDS011;38513;53.234;6.568;2023-05-23T00:05:48;52.00;;;23.97;;
52618;SDS011;38513;53.234;6.568;2023-05-23T00:08:15;46.40;;;22.60;;
52618;SDS011;38513;53.234;6.568;2023-05-23T00:10:42;51.10;;;21.60;;
52618;SDS011;38513;53.234;6.568;2023-05-23T00:13:08;46.05;;;23.17;;
52618;SDS011;38513;53.234;6.568;2023-05-23T00:15:37;50.40;;;25.43;;
52618;SDS011;38513;53.234;6.568;2023-05-23T00:18:03;46.15;;;27.48;;
52618;SDS011;38513;53.234;6.568;2023-05-23T00:20:29;39.67;;;24.10;;
52618;SDS011;38513;53.234;6.568;2023-05-23T00:22:56;45.47;;;22.63;;
52618;SDS011;38513;53.234;6.568;2023-05-23T00:25:23;39.53;;;23.05;;
52618;SDS011;38513;53.234;6.568;2023-05-23T00:27:50;36.00;;;22.70;;
52618;SDS011;38513;53.234;6.568;2023-05-23T00:30:16;44.13;;;23.08;;
52618;SDS011;38513;53.234;6.568;2023-05-23T00:32:42;45.17;;;24.67;;
52618;SDS011;38513;53.234;6.568;2023-05-23T00:35:08;44.72;;;25.10;;
52618;SDS011;38513;53.234;6.568;2023-05-23T00:37:34;45.70;;;26.85;;
52618;SDS011;38513;53.234;6.568;2023-05-23T00:40:04;40.15;;;27.08;;
52618;SDS011;38513;53.234;6.568;2023-05-23T00:42:34;41.70;;;25.98;;
52618;SDS011;38513;53.234;6.568;2023-05-23T00:45:00;40.35;;;26.75;;
52618;SDS011;38513;53.234;6.568;2023-05-23T00:47:26;40.70;;;25.00;;
52618;SDS011;38513;53.234;6.568;2023-05-23T00:49:52;32.97;;;23.83;;
52618;SDS011;38513;53.234;6.568;2023-05-23T00:52:18;33.58;;;22.10;;
52618;SDS011;38513;53.234;6.568;2023-05-23T00:54:45;32.65;;;21.23;;
52618;SDS011;38513;53.234;6.568;2023-05-23T00:57:11;32.78;;;20.45;;
52618;SDS011;38513;53.234;6.568;2023-05-23T00:59:37;30.35;;;20.35;;
52618;SDS011;38513;53.234;6.568;2023-05-23T01:02:03;33.60;;;19.58;;
52618;SDS011;38513;53.234;6.568;2023-05-23T01:04:30;30.25;;;18.27;;
52618;SDS011;38513;53.234;6.568;2023-05-23T01:06:58;30.20;;;17.03;;
52618;SDS011;38513;53.234;6.568;2023-05-23T01:09:26;26.10;;;16.17;;
52618;SDS011;38513;53.234;6.568;2023-05-23T01:14:25;22.40;;;14.02;;
52618;SDS011;38513;53.234;6.568;2023-05-23T01:17:00;24.25;;;13.65;;
52618;SDS011;38513;53.234;6.568;2023-05-23T01:24:54;26.97;;;14.10;;
52618;SDS011;38513;53.234;6.568;2023-05-23T01:27:23;30.10;;;15.20;;
52618;SDS011;38513;53.234;6.568;2023-05-23T01:29:56;32.78;;;15.20;;
52618;SDS011;38513;53.234;6.568;2023-05-23T01:32:23;30.52;;;15.65;;
52618;SDS011;38513;53.234;6.568;2023-05-23T01:34:51;37.20;;;15.95;;
52618;SDS011;38513;53.234;6.568;2023-05-23T01:37:18;34.60;;;15.50;;
52618;SDS011;38513;53.234;6.568;2023-05-23T01:39:45;40.08;;;16.85;;
52618;SDS011;38513;53.234;6.568;2023-05-23T01:42:11;33.60;;;15.63;;
52618;SDS011;38513;53.234;6.568;2023-05-23T01:44:38;39.22;;;15.45;;
52618;SDS011;38513;53.234;6.568;2023-05-23T01:47:04;38.20;;;16.30;;
52618;SDS011;38513;53.234;6.568;2023-05-23T01:49:32;37.15;;;15.43;;
52618;SDS011;38513;53.234;6.568;2023-05-23T01:51:59;34.90;;;15.88;;
52618;SDS011;38513;53.234;6.568;2023-05-23T01:54:26;34.40;;;15.40;;
52618;SDS011;38513;53.234;6.568;2023-05-23T01:56:56;35.75;;;16.52;;
52618;SDS011;38513;53.234;6.568;2023-05-23T01:59:23;42.33;;;16.40;;
52618;SDS011;38513;53.234;6.568;2023-05-23T02:01:49;38.53;;;16.02;;
52618;SDS011;38513;53.234;6.568;2023-05-23T02:04:15;36.40;;;15.80;;
52618;SDS011;38513;53.234;6.568;2023-05-23T02:06:41;35.35;;;15.55;;
52618;SDS011;38513;53.234;6.568;2023-05-23T02:09:08;41.27;;;16.30;;
52618;SDS011;38513;53.234;6.568;2023-05-23T02:11:34;35.85;;;15.05;;
52618;SDS011;38513;53.234;6.568;2023-05-23T02:14:00;32.65;;;14.60;;
52618;SDS011;38513;53.234;6.568;2023-05-23T02:16:26;31.45;;;13.50;;
52618;SDS011;38513;53.234;6.568;2023-05-23T02:18:52;32.20;;;13.27;;
52618;SDS011;38513;53.234;6.568;2023-05-23T02:21:23;32.53;;;13.10;;
52618;SDS011;38513;53.234;6.568;2023-05-23T02:23:49;36.25;;;13.13;;
52618;SDS011;38513;53.234;6.568;2023-05-23T02:26:16;35.77;;;13.30;;
52618;SDS011;38513;53.234;6.568;2023-05-23T02:28:45;35.13;;;12.90;;
52618;SDS011;38513;53.234;6.568;2023-05-23T02:31:11;28.45;;;12.73;;
52618;SDS011;38513;53.234;6.568;2023-05-23T02:33:37;35.58;;;13.32;;
52618;SDS011;38513;53.234;6.568;2023-05-23T02:36:04;38.28;;;13.65;;
52618;SDS011;38513;53.234;6.568;2023-05-23T02:38:34;33.55;;;13.10;;
52618;SDS011;38513;53.234;6.568;2023-05-23T02:41:00;35.85;;;13.32;;
52618;SDS011;38513;53.234;6.568;2023-05-23T02:43:26;35.83;;;12.40;;
52618;SDS011;38513;53.234;6.568;2023-05-23T02:45:52;37.08;;;13.80;;
52618;SDS011;38513;53.234;6.568;2023-05-23T02:48:19;38.13;;;12.60;;
52618;SDS011;38513;53.234;6.568;2023-05-23T02:50:45;36.15;;;12.40;;
52618;SDS011;38513;53.234;6.568;2023-05-23T02:53:11;31.70;;;12.07;;
52618;SDS011;38513;53.234;6.568;2023-05-23T02:55:37;37.10;;;13.23;;
52618;SDS011;38513;53.234;6.568;2023-05-23T02:58:03;37.08;;;12.73;;
52618;SDS011;38513;53.234;6.568;2023-05-23T03:00:30;35.08;;;12.38;;
52618;SDS011;38513;53.234;6.568;2023-05-23T03:03:00;38.20;;;12.90;;
52618;SDS011;38513;53.234;6.568;2023-05-23T03:05:26;35.28;;;12.52;;
52618;SDS011;38513;53.234;6.568;2023-05-23T03:07:52;34.10;;;13.00;;
52618;SDS011;38513;53.234;6.568;2023-05-23T03:10:19;37.90;;;13.20;;
52618;SDS011;38513;53.234;6.568;2023-05-23T03:12:45;35.23;;;13.33;;
52618;SDS011;38513;53.234;6.568;2023-05-23T03:15:11;32.25;;;12.60;;
52618;SDS011;38513;53.234;6.568;2023-05-23T03:17:38;37.23;;;12.97;;
52618;SDS011;38513;53.234;6.568;2023-05-23T03:20:04;30.50;;;12.20;;
52618;SDS011;38513;53.234;6.568;2023-05-23T03:22:34;30.50;;;12.00;;
52618;SDS011;38513;53.234;6.568;2023-05-23T03:25:01;28.30;;;10.70;;
52618;SDS011;38513;53.234;6.568;2023-05-23T03:27:27;26.00;;;9.93;;
52618;SDS011;38513;53.234;6.568;2023-05-23T03:29:53;28.60;;;11.10;;
52618;SDS011;38513;53.234;6.568;2023-05-23T03:32:19;29.30;;;9.90;;
52618;SDS011;38513;53.234;6.568;2023-05-23T03:34:46;29.85;;;10.73;;
52618;SDS011;38513;53.234;6.568;2023-05-23T03:37:12;28.25;;;9.88;;
52618;SDS011;38513;53.234;6.568;2023-05-23T03:39:38;29.17;;;10.48;;
52618;SDS011;38513;53.234;6.568;2023-05-23T03:42:04;27.67;;;10.53;;
52618;SDS011;38513;53.234;6.568;2023-05-23T03:44:31;28.23;;;10.18;;
52618;SDS011;38513;53.234;6.568;2023-05-23T03:46:57;31.55;;;10.02;;
52618;SDS011;38513;53.234;6.568;2023-05-23T03:49:23;28.42;;;9.30;;
52618;SDS011;38513;53.234;6.568;2023-05-23T03:51:50;27.23;;;8.70;;
52618;SDS011;38513;53.234;6.568;2023-05-23T03:54:16;31.45;;;9.30;;
52618;SDS011;38513;53.234;6.568;2023-05-23T03:56:42;25.27;;;9.00;;
52618;SDS011;38513;53.234;6.568;2023-05-23T03:59:08;24.42;;;8.68;;
52618;SDS011;38513;53.234;6.568;2023-05-23T04:01:34;25.05;;;9.05;;
52618;SDS011;38513;53.234;6.568;2023-05-23T04:04:03;28.00;;;9.73;;
52618;SDS011;38513;53.234;6.568;2023-05-23T04:06:29;28.05;;;9.45;;
52618;SDS011;38513;53.234;6.568;2023-05-23T04:08:56;24.03;;;9.07;;
52618;SDS011;38513;53.234;6.568;2023-05-23T04:11:22;27.55;;;9.93;;
52618;SDS011;38513;53.234;6.568;2023-05-23T04:13:48;25.50;;;8.60;;
52618;SDS011;38513;53.234;6.568;2023-05-23T04:16:16;27.80;;;8.57;;
52618;SDS011;38513;53.234;6.568;2023-05-23T04:18:42;23.50;;;8.27;;
52618;SDS011;38513;53.234;6.568;2023-05-23T04:21:11;21.23;;;6.75;;
52618;SDS011;38513;53.234;6.568;2023-05-23T04:23:37;22.90;;;7.25;;
52618;SDS011;38513;53.234;6.568;2023-05-23T04:26:03;23.80;;;7.07;;
52618;SDS011;38513;53.234;6.568;2023-05-23T04:28:30;23.55;;;6.07;;
52618;SDS011;38513;53.234;6.568;2023-05-23T04:30:56;26.15;;;6.38;;
52618;SDS011;38513;53.234;6.568;2023-05-23T04:33:22;21.75;;;5.97;;
52618;SDS011;38513;53.234;6.568;2023-05-23T04:35:49;21.85;;;6.28;;
52618;SDS011;38513;53.234;6.568;2023-05-23T04:38:15;23.05;;;6.68;;
52618;SDS011;38513;53.234;6.568;2023-05-23T04:40:41;23.63;;;7.47;;
52618;SDS011;38513;53.234;6.568;2023-05-23T04:43:08;24.20;;;6.60;;
52618;SDS011;38513;53.234;6.568;2023-05-23T04:45:34;23.30;;;7.43;;
52618;SDS011;38513;53.234;6.568;2023-05-23T04:48:09;24.92;;;7.82;;
52618;SDS011;38513;53.234;6.568;2023-05-23T04:50:37;25.55;;;8.55;;
52618;SDS011;38513;53.234;6.568;2023-05-23T04:53:04;27.25;;;9.50;;
52618;SDS011;38513;53.234;6.568;2023-05-23T04:55:32;29.75;;;10.40;;
52618;SDS011;38513;53.234;6.568;2023-05-23T04:57:58;32.10;;;11.85;;
52618;SDS011;38513;53.234;6.568;2023-05-23T05:00:25;26.83;;;11.30;;
52618;SDS011;38513;53.234;6.568;2023-05-23T05:02:51;27.55;;;11.35;;
52618;SDS011;38513;53.234;6.568;2023-05-23T05:05:17;29.55;;;12.43;;
52618;SDS011;38513;53.234;6.568;2023-05-23T05:07:43;33.13;;;12.35;;
52618;SDS011;38513;53.234;6.568;2023-05-23T05:10:09;31.70;;;12.95;;
52618;SDS011;38513;53.234;6.568;2023-05-23T05:12:44;29.75;;;11.50;;
52618;SDS011;38513;53.234;6.568;2023-05-23T05:15:11;31.13;;;12.48;;
52618;SDS011;38513;53.234;6.568;2023-05-23T05:17:38;28.48;;;11.73;;
52618;SDS011;38513;53.234;6.568;2023-05-23T05:20:04;31.03;;;10.83;;
52618;SDS011;38513;53.234;6.568;2023-05-23T05:22:36;29.93;;;10.47;;
52618;SDS011;38513;53.234;6.568;2023-05-23T05:25:07;23.43;;;8.90;;
52618;SDS011;38513;53.234;6.568;2023-05-23T05:27:33;27.15;;;10.60;;
52618;SDS011;38513;53.234;6.568;2023-05-23T05:30:04;24.35;;;9.73;;
52618;SDS011;38513;53.234;6.568;2023-05-23T05:32:30;28.25;;;9.30;;
52618;SDS011;38513;53.234;6.568;2023-05-23T05:34:58;24.58;;;8.93;;
52618;SDS011;38513;53.234;6.568;2023-05-23T05:37:24;22.17;;;7.85;;
52618;SDS011;38513;53.234;6.568;2023-05-23T05:39:51;22.00;;;7.70;;
52618;SDS011;38513;53.234;6.568;2023-05-23T05:42:18;20.85;;;7.80;;
52618;SDS011;38513;53.234;6.568;2023-05-23T05:44:45;19.48;;;6.93;;
52618;SDS011;38513;53.234;6.568;2023-05-23T05:47:12;20.52;;;7.15;;
52618;SDS011;38513;53.234;6.568;2023-05-23T05:49:38;18.50;;;6.22;;
52618;SDS011;38513;53.234;6.568;2023-05-23T05:52:07;15.98;;;6.38;;
52618;SDS011;38513;53.234;6.568;2023-05-23T05:54:34;17.13;;;6.10;;
52618;SDS011;38513;53.234;6.568;2023-05-23T05:57:00;17.00;;;6.03;;
52618;SDS011;38513;53.234;6.568;2023-05-23T05:59:26;18.88;;;6.30;;
52618;SDS011;38513;53.234;6.568;2023-05-23T06:01:52;17.75;;;5.68;;
52618;SDS011;38513;53.234;6.568;2023-05-23T06:04:18;18.73;;;5.90;;
52618;SDS011;38513;53.234;6.568;2023-05-23T06:06:45;17.53;;;5.67;;
52618;SDS011;38513;53.234;6.568;2023-05-23T06:09:11;18.77;;;5.60;;
52618;SDS011;38513;53.234;6.568;2023-05-23T06:11:37;21.80;;;5.45;;
52618;SDS011;38513;53.234;6.568;2023-05-23T06:14:05;18.77;;;5.57;;
52618;SDS011;38513;53.234;6.568;2023-05-23T06:16:31;18.00;;;6.32;;
52618;SDS011;38513;53.234;6.568;2023-05-23T06:18:58;20.67;;;6.00;;
52618;SDS011;38513;53.234;6.568;2023-05-23T06:21:24;22.75;;;5.97;;
52618;SDS011;38513;53.234;6.568;2023-05-23T06:23:51;22.75;;;5.93;;
52618;SDS011;38513;53.234;6.568;2023-05-23T06:26:17;23.70;;;6.28;;
52618;SDS011;38513;53.234;6.568;2023-05-23T06:28:43;24.90;;;6.35;;
52618;SDS011;38513;53.234;6.568;2023-05-23T06:31:09;23.85;;;6.55;;
52618;SDS011;38513;53.234;6.568;2023-05-23T06:33:39;25.45;;;6.38;;
52618;SDS011;38513;53.234;6.568;2023-05-23T06:36:09;20.90;;;5.80;;
52618;SDS011;38513;53.234;6.568;2023-05-23T06:38:35;24.33;;;5.93;;
52618;SDS011;38513;53.234;6.568;2023-05-23T06:41:06;23.25;;;5.85;;
52618;SDS011;38513;53.234;6.568;2023-05-23T06:43:33;21.00;;;5.80;;
52618;SDS011;38513;53.234;6.568;2023-05-23T06:45:59;23.75;;;6.05;;
52618;SDS011;38513;53.234;6.568;2023-05-23T06:48:25;24.50;;;5.38;;
52618;SDS011;38513;53.234;6.568;2023-05-23T06:50:51;22.90;;;6.50;;
52618;SDS011;38513;53.234;6.568;2023-05-23T06:53:17;24.80;;;5.30;;
52618;SDS011;38513;53.234;6.568;2023-05-23T06:55:43;21.88;;;5.18;;
52618;SDS011;38513;53.234;6.568;2023-05-23T06:58:10;23.27;;;5.13;;
52618;SDS011;38513;53.234;6.568;2023-05-23T07:00:39;25.45;;;6.18;;
52618;SDS011;38513;53.234;6.568;2023-05-23T07:03:08;24.35;;;6.03;;
52618;SDS011;38513;53.234;6.568;2023-05-23T07:05:35;25.08;;;5.63;;
52618;SDS011;38513;53.234;6.568;2023-05-23T07:08:07;26.15;;;6.05;;
52618;SDS011;38513;53.234;6.568;2023-05-23T07:10:35;24.10;;;5.65;;
52618;SDS011;38513;53.234;6.568;2023-05-23T07:13:05;20.57;;;4.97;;
52618;SDS011;38513;53.234;6.568;2023-05-23T07:15:32;23.15;;;4.95;;
52618;SDS011;38513;53.234;6.568;2023-05-23T07:17:58;21.45;;;5.30;;
52618;SDS011;38513;53.234;6.568;2023-05-23T07:20:24;22.83;;;5.32;;
52618;SDS011;38513;53.234;6.568;2023-05-23T07:22:51;24.10;;;5.27;;
52618;SDS011;38513;53.234;6.568;2023-05-23T07:25:17;22.95;;;5.20;;
52618;SDS011;38513;53.234;6.568;2023-05-23T07:27:43;19.75;;;4.43;;
52618;SDS011;38513;53.234;6.568;2023-05-23T07:30:09;24.08;;;5.22;;
52618;SDS011;38513;53.234;6.568;2023-05-23T07:32:39;20.90;;;4.70;;
52618;SDS011;38513;53.234;6.568;2023-05-23T07:35:05;22.33;;;5.00;;
52618;SDS011;38513;53.234;6.568;2023-05-23T07:37:32;21.20;;;4.95;;
52618;SDS011;38513;53.234;6.568;2023-05-23T07:39:59;21.13;;;5.38;;
52618;SDS011;38513;53.234;6.568;2023-05-23T07:42:26;26.80;;;5.38;;
52618;SDS011;38513;53.234;6.568;2023-05-23T07:44:52;22.07;;;4.93;;
52618;SDS011;38513;53.234;6.568;2023-05-23T07:47:18;23.35;;;4.70;;
52618;SDS011;38513;53.234;6.568;2023-05-23T07:49:45;19.52;;;4.60;;
52618;SDS011;38513;53.234;6.568;2023-05-23T07:52:11;21.20;;;4.95;;
52618;SDS011;38513;53.234;6.568;2023-05-23T07:54:37;20.17;;;4.65;;
52618;SDS011;38513;53.234;6.568;2023-05-23T07:57:03;21.55;;;5.20;;
52618;SDS011;38513;53.234;6.568;2023-05-23T07:59:32;22.83;;;5.38;;
52618;SDS011;38513;53.234;6.568;2023-05-23T08:01:58;28.65;;;5.53;;
52618;SDS011;38513;53.234;6.568;2023-05-23T08:04:24;25.48;;;5.03;;
52618;SDS011;38513;53.234;6.568;2023-05-23T08:06:50;21.38;;;5.32;;
52618;SDS011;38513;53.234;6.568;2023-05-23T08:09:20;24.85;;;5.15;;
52618;SDS011;38513;53.234;6.568;2023-05-23T08:11:46;23.10;;;5.47;;
52618;SDS011;38513;53.234;6.568;2023-05-23T08:14:12;22.20;;;4.90;;
52618;SDS011;38513;53.234;6.568;2023-05-23T08:16:38;18.73;;;4.68;;
52618;SDS011;38513;53.234;6.568;2023-05-23T08:19:04;21.98;;;5.72;;
52618;SDS011;38513;53.234;6.568;2023-05-23T08:21:34;23.10;;;5.00;;
52618;SDS011;38513;53.234;6.568;2023-05-23T08:24:00;19.45;;;5.15;;
52618;SDS011;38513;53.234;6.568;2023-05-23T08:26:26;22.15;;;5.18;;
52618;SDS011;38513;53.234;6.568;2023-05-23T08:28:59;18.70;;;5.07;;
52618;SDS011;38513;53.234;6.568;2023-05-23T08:31:26;24.85;;;5.35;;
52618;SDS011;38513;53.234;6.568;2023-05-23T08:33:52;26.33;;;5.40;;
52618;SDS011;38513;53.234;6.568;2023-05-23T08:36:18;19.97;;;5.10;;
52618;SDS011;38513;53.234;6.568;2023-05-23T08:38:45;22.17;;;5.50;;
52618;SDS011;38513;53.234;6.568;2023-05-23T08:41:18;19.83;;;5.30;;
52618;SDS011;38513;53.234;6.568;2023-05-23T08:43:44;25.80;;;5.50;;
52618;SDS011;38513;53.234;6.568;2023-05-23T08:46:11;20.67;;;4.60;;
52618;SDS011;38513;53.234;6.568;2023-05-23T08:48:38;23.47;;;5.13;;
52618;SDS011;38513;53.234;6.568;2023-05-23T08:51:04;19.98;;;5.35;;
52618;SDS011;38513;53.234;6.568;2023-05-23T08:53:32;26.77;;;5.22;;
52618;SDS011;38513;53.234;6.568;2023-05-23T08:55:59;20.27;;;4.70;;
52618;SDS011;38513;53.234;6.568;2023-05-23T08:58:28;24.48;;;5.05;;
52618;SDS011;38513;53.234;6.568;2023-05-23T09:00:56;21.00;;;4.85;;
52618;SDS011;38513;53.234;6.568;2023-05-23T09:03:23;22.27;;;5.20;;
52618;SDS011;38513;53.234;6.568;2023-05-23T09:05:50;21.33;;;4.95;;
52618;SDS011;38513;53.234;6.568;2023-05-23T09:08:19;26.30;;;5.43;;
52618;SDS011;38513;53.234;6.568;2023-05-23T09:10:46;20.88;;;5.30;;
52618;SDS011;38513;53.234;6.568;2023-05-23T09:13:14;18.67;;;5.00;;
52618;SDS011;38513;53.234;6.568;2023-05-23T09:18:32;18.27;;;4.70;;
52618;SDS011;38513;53.234;6.568;2023-05-23T09:20:59;22.05;;;4.40;;
52618;SDS011;38513;53.234;6.568;2023-05-23T09:23:27;18.13;;;4.85;;
52618;SDS011;38513;53.234;6.568;2023-05-23T09:25:54;20.20;;;4.63;;
52618;SDS011;38513;53.234;6.568;2023-05-23T09:28:20;25.25;;;5.97;;
52618;SDS011;38513;53.234;6.568;2023-05-23T09:30:46;17.87;;;4.60;;
52618;SDS011;38513;53.234;6.568;2023-05-23T09:33:12;20.58;;;4.57;;
52618;SDS011;38513;53.234;6.568;2023-05-23T09:35:42;21.30;;;4.38;;
52618;SDS011;38513;53.234;6.568;2023-05-23T09:38:09;19.37;;;4.60;;
52618;SDS011;38513;53.234;6.568;2023-05-23T09:40:43;23.42;;;4.65;;
52618;SDS011;38513;53.234;6.568;2023-05-23T09:43:10;21.10;;;4.30;;
52618;SDS011;38513;53.234;6.568;2023-05-23T09:45:39;22.47;;;4.43;;
52618;SDS011;38513;53.234;6.568;2023-05-23T09:48:06;19.25;;;4.88;;
52618;SDS011;38513;53.234;6.568;2023-05-23T09:50:37;22.13;;;4.72;;
52618;SDS011;38513;53.234;6.568;2023-05-23T09:53:04;22.30;;;4.45;;
52618;SDS011;38513;53.234;6.568;2023-05-23T09:55:30;18.48;;;4.15;;
52618;SDS011;38513;53.234;6.568;2023-05-23T09:57:57;16.33;;;4.25;;
52618;SDS011;38513;53.234;6.568;2023-05-23T10:00:24;17.33;;;4.13;;
52618;SDS011;38513;53.234;6.568;2023-05-23T10:02:54;19.37;;;4.00;;
52618;SDS011;38513;53.234;6.568;2023-05-23T10:05:29;19.80;;;4.22;;
52618;SDS011;38513;53.234;6.568;2023-05-23T10:07:57;19.17;;;4.35;;
52618;SDS011;38513;53.234;6.568;2023-05-23T10:10:27;17.57;;;4.00;;
52618;SDS011;38513;53.234;6.568;2023-05-23T10:12:54;20.95;;;4.95;;
52618;SDS011;38513;53.234;6.568;2023-05-23T10:15:20;17.50;;;4.25;;
52618;SDS011;38513;53.234;6.568;2023-05-23T10:17:54;19.05;;;5.07;;
52618;SDS011;38513;53.234;6.568;2023-05-23T10:20:27;16.50;;;3.88;;
52618;SDS011;38513;53.234;6.568;2023-05-23T10:22:57;20.38;;;4.60;;
52618;SDS011;38513;53.234;6.568;2023-05-23T10:25:23;23.20;;;5.10;;
52618;SDS011;38513;53.234;6.568;2023-05-23T10:27:52;18.00;;;4.28;;
52618;SDS011;38513;53.234;6.568;2023-05-23T10:30:23;22.58;;;4.70;;
52618;SDS011;38513;53.234;6.568;2023-05-23T10:32:49;23.08;;;4.93;;
52618;SDS011;38513;53.234;6.568;2023-05-23T10:37:51;21.30;;;4.18;;
52618;SDS011;38513;53.234;6.568;2023-05-23T10:40:23;17.60;;;4.30;;
52618;SDS011;38513;53.234;6.568;2023-05-23T10:42:55;17.35;;;4.10;;
52618;SDS011;38513;53.234;6.568;2023-05-23T10:45:22;16.08;;;4.00;;
52618;SDS011;38513;53.234;6.568;2023-05-23T10:47:52;16.23;;;3.70;;
52618;SDS011;38513;53.234;6.568;2023-05-23T10:50:39;17.23;;;3.65;;
52618;SDS011;38513;53.234;6.568;2023-05-23T10:53:05;17.88;;;4.10;;
52618;SDS011;38513;53.234;6.568;2023-05-23T10:55:35;16.77;;;3.90;;
52618;SDS011;38513;53.234;6.568;2023-05-23T11:00:37;18.08;;;4.15;;
52618;SDS011;38513;53.234;6.568;2023-05-23T11:03:04;20.52;;;4.10;;
52618;SDS011;38513;53.234;6.568;2023-05-23T11:05:33;17.30;;;4.20;;
52618;SDS011;38513;53.234;6.568;2023-05-23T11:13:21;18.52;;;4.10;;
52618;SDS011;38513;53.234;6.568;2023-05-23T11:15:48;17.77;;;4.13;;
52618;SDS011;38513;53.234;6.568;2023-05-23T11:18:21;19.17;;;4.47;;
52618;SDS011;38513;53.234;6.568;2023-05-23T11:20:51;19.98;;;4.38;;
52618;SDS011;38513;53.234;6.568;2023-05-23T11:23:18;20.35;;;4.47;;
52618;SDS011;38513;53.234;6.568;2023-05-23T11:25:51;20.88;;;5.18;;
52618;SDS011;38513;53.234;6.568;2023-05-23T11:28:19;21.73;;;5.18;;
52618;SDS011;38513;53.234;6.568;2023-05-23T11:30:49;18.75;;;3.83;;
52618;SDS011;38513;53.234;6.568;2023-05-23T11:33:15;19.30;;;5.40;;
52618;SDS011;38513;53.234;6.568;2023-05-23T11:35:43;17.15;;;4.00;;
52618;SDS011;38513;53.234;6.568;2023-05-23T11:38:10;18.15;;;4.20;;
52618;SDS011;38513;53.234;6.568;2023-05-23T11:40:39;19.40;;;4.55;;
52618;SDS011;38513;53.234;6.568;2023-05-23T11:43:10;18.90;;;3.95;;
52618;SDS011;38513;53.234;6.568;2023-05-23T11:45:39;17.05;;;3.80;;
52618;SDS011;38513;53.234;6.568;2023-05-23T11:50:51;14.47;;;3.37;;
52618;SDS011;38513;53.234;6.568;2023-05-23T11:53:18;18.75;;;3.50;;
52618;SDS011;38513;53.234;6.568;2023-05-23T11:56:00;17.38;;;3.63;;
52618;SDS011;38513;53.234;6.568;2023-05-23T11:58:30;17.23;;;4.30;;
52618;SDS011;38513;53.234;6.568;2023-05-23T12:01:00;15.00;;;3.50;;
52618;SDS011;38513;53.234;6.568;2023-05-23T12:03:33;15.07;;;3.67;;
52618;SDS011;38513;53.234;6.568;2023-05-23T12:06:00;17.30;;;3.80;;
52618;SDS011;38513;53.234;6.568;2023-05-23T12:08:26;20.48;;;3.70;;
52618;SDS011;38513;53.234;6.568;2023-05-23T12:10:55;17.67;;;3.55;;
52618;SDS011;38513;53.234;6.568;2023-05-23T12:13:25;17.77;;;3.47;;
52618;SDS011;38513;53.234;6.568;2023-05-23T12:15:55;16.15;;;3.80;;
52618;SDS011;38513;53.234;6.568;2023-05-23T12:18:21;14.88;;;3.17;;
52618;SDS011;38513;53.234;6.568;2023-05-23T12:20:48;18.13;;;4.05;;
52618;SDS011;38513;53.234;6.568;2023-05-23T12:23:20;22.65;;;4.90;;
52618;SDS011;38513;53.234;6.568;2023-05-23T12:25:53;19.17;;;4.22;;
52618;SDS011;38513;53.234;6.568;2023-05-23T12:28:20;17.80;;;4.20;;
52618;SDS011;38513;53.234;6.568;2023-05-23T12:30:46;19.70;;;4.75;;
52618;SDS011;38513;53.234;6.568;2023-05-23T12:33:13;19.48;;;4.18;;
52618;SDS011;38513;53.234;6.568;2023-05-23T12:35:43;16.57;;;3.40;;
52618;SDS011;38513;53.234;6.568;2023-05-23T12:38:13;17.88;;;3.60;;
52618;SDS011;38513;53.234;6.568;2023-05-23T12:40:40;20.88;;;4.05;;
52618;SDS011;38513;53.234;6.568;2023-05-23T12:43:07;17.40;;;3.67;;
52618;SDS011;38513;53.234;6.568;2023-05-23T12:45:35;16.35;;;3.70;;
52618;SDS011;38513;53.234;6.568;2023-05-23T12:48:04;18.77;;;4.20;;
52618;SDS011;38513;53.234;6.568;2023-05-23T12:50:34;18.48;;;4.40;;
52618;SDS011;38513;53.234;6.568;2023-05-23T12:53:00;19.02;;;4.25;;
52618;SDS011;38513;53.234;6.568;2023-05-23T12:55:29;19.40;;;3.95;;
52618;SDS011;38513;53.234;6.568;2023-05-23T12:57:55;18.73;;;4.07;;
52618;SDS011;38513;53.234;6.568;2023-05-23T13:00:22;17.63;;;3.53;;
52618;SDS011;38513;53.234;6.568;2023-05-23T13:02:48;15.77;;;3.42;;
52618;SDS011;38513;53.234;6.568;2023-05-23T13:05:14;18.65;;;3.33;;
52618;SDS011;38513;53.234;6.568;2023-05-23T13:07:40;15.05;;;3.00;;
52618;SDS011;38513;53.234;6.568;2023-05-23T13:10:08;16.75;;;3.25;;
52618;SDS011;38513;53.234;6.568;2023-05-23T13:12:34;19.17;;;3.67;;
52618;SDS011;38513;53.234;6.568;2023-05-23T13:15:01;13.85;;;3.67;;
52618;SDS011;38513;53.234;6.568;2023-05-23T13:17:27;16.17;;;3.63;;
52618;SDS011;38513;53.234;6.568;2023-05-23T13:19:53;19.30;;;3.85;;
52618;SDS011;38513;53.234;6.568;2023-05-23T13:22:20;18.35;;;4.20;;
52618;SDS011;38513;53.234;6.568;2023-05-23T13:24:46;18.90;;;4.23;;
52618;SDS011;38513;53.234;6.568;2023-05-23T13:27:13;15.38;;;3.72;;
52618;SDS011;38513;53.234;6.568;2023-05-23T13:29:39;14.15;;;3.10;;
52618;SDS011;38513;53.234;6.568;2023-05-23T13:32:07;16.75;;;3.00;;
52618;SDS011;38513;53.234;6.568;2023-05-23T13:34:33;17.55;;;4.10;;
52618;SDS011;38513;53.234;6.568;2023-05-23T13:37:01;16.30;;;4.03;;
52618;SDS011;38513;53.234;6.568;2023-05-23T13:39:28;15.07;;;3.42;;
52618;SDS011;38513;53.234;6.568;2023-05-23T13:41:54;14.68;;;3.60;;
52618;SDS011;38513;53.234;6.568;2023-05-23T13:44:21;18.05;;;4.03;;
52618;SDS011;38513;53.234;6.568;2023-05-23T13:46:47;14.93;;;3.05;;
52618;SDS011;38513;53.234;6.568;2023-05-23T13:49:13;15.53;;;3.50;;
52618;SDS011;38513;53.234;6.568;2023-05-23T13:51:39;17.80;;;3.60;;
52618;SDS011;38513;53.234;6.568;2023-05-23T13:54:07;19.08;;;3.60;;
52618;SDS011;38513;53.234;6.568;2023-05-23T13:56:33;13.98;;;3.30;;
52618;SDS011;38513;53.234;6.568;2023-05-23T13:59:00;15.00;;;3.42;;
52618;SDS011;38513;53.234;6.568;2023-05-23T14:01:27;15.90;;;3.28;;
52618;SDS011;38513;53.234;6.568;2023-05-23T14:03:54;14.73;;;3.30;;
52618;SDS011;38513;53.234;6.568;2023-05-23T14:06:20;16.70;;;3.33;;
52618;SDS011;38513;53.234;6.568;2023-05-23T14:08:47;17.48;;;4.22;;
52618;SDS011;38513;53.234;6.568;2023-05-23T14:11:13;17.70;;;3.53;;
52618;SDS011;38513;53.234;6.568;2023-05-23T14:13:40;16.63;;;3.60;;
52618;SDS011;38513;53.234;6.568;2023-05-23T14:16:06;17.80;;;3.65;;
52618;SDS011;38513;53.234;6.568;2023-05-23T14:18:32;18.83;;;3.72;;
52618;SDS011;38513;53.234;6.568;2023-05-23T14:20:58;17.75;;;3.88;;
52618;SDS011;38513;53.234;6.568;2023-05-23T14:23:24;16.33;;;3.63;;
52618;SDS011;38513;53.234;6.568;2023-05-23T14:25:51;17.25;;;3.90;;
52618;SDS011;38513;53.234;6.568;2023-05-23T14:28:17;18.08;;;4.15;;
52618;SDS011;38513;53.234;6.568;2023-05-23T14:30:43;19.20;;;3.63;;
52618;SDS011;38513;53.234;6.568;2023-05-23T14:33:09;15.00;;;3.10;;
52618;SDS011;38513;53.234;6.568;2023-05-23T14:35:36;16.27;;;3.67;;
52618;SDS011;38513;53.234;6.568;2023-05-23T14:38:03;12.77;;;3.13;;
52618;SDS011;38513;53.234;6.568;2023-05-23T14:40:30;15.57;;;3.30;;
52618;SDS011;38513;53.234;6.568;2023-05-23T14:42:59;17.15;;;3.65;;
52618;SDS011;38513;53.234;6.568;2023-05-23T14:45:25;17.65;;;3.40;;
52618;SDS011;38513;53.234;6.568;2023-05-23T14:47:51;16.98;;;3.75;;
52618;SDS011;38513;53.234;6.568;2023-05-23T14:50:18;16.90;;;3.60;;
52618;SDS011;38513;53.234;6.568;2023-05-23T14:52:44;16.65;;;3.47;;
52618;SDS011;38513;53.234;6.568;2023-05-23T14:55:10;15.18;;;3.53;;